Terminal Aerodrome Forecast
Issued by NWS Melbourne, FL

Current Version | Previous Version | Text Only | Print | Product List | Glossary On
Versions: 1 2 3 4 5 6 7 8 9 10 11 12
000
FTUS42 KMLB 202300
TAFDAB
TAF
KDAB 202320Z 2100/2124 04004KT P6SM FEW035 SCT090 SCT110
     FM210600 VRB03KT 5SM BR BKN025 OVC060
     FM211400 18004KT P6SM SCT025 BKN090
     FM211900 21006KT P6SM SCT035 BKN090=

USA.gov is the U.S. government's official web portal to all federal, state and local government web resources and services.